createdAt,value
2018-12-26T00:02:32.242Z,0.30
2018-12-26T00:05:20.334Z,0.30
2018-12-26T00:08:10.157Z,0.20
2018-12-26T00:14:07.113Z,0.10
2018-12-26T00:16:55.210Z,0.10
2018-12-26T00:19:43.450Z,0.10
2018-12-26T00:22:31.782Z,0.00
2018-12-26T00:25:19.769Z,0.00
2018-12-26T00:28:00.490Z,0.00
2018-12-26T00:30:41.417Z,0.10
2018-12-26T00:33:23.279Z,0.20
2018-12-26T00:36:04.516Z,0.20
2018-12-26T00:38:45.473Z,0.20
2018-12-26T00:41:26.288Z,0.20
2018-12-26T00:44:07.041Z,0.20
2018-12-26T00:46:47.749Z,0.20
2018-12-26T00:49:28.534Z,0.10
2018-12-26T00:52:09.777Z,0.10
2018-12-26T00:54:50.425Z,0.10
2018-12-26T00:57:30.957Z,0.10
2018-12-26T01:00:12.007Z,0.20
2018-12-26T01:02:52.787Z,0.20
2018-12-26T01:05:33.709Z,0.30
2018-12-26T01:08:02.921Z,0.30
2018-12-26T01:10:51.291Z,0.30
2018-12-26T01:13:39.584Z,0.20
2018-12-26T01:16:27.786Z,0.20
2018-12-26T01:19:16.040Z,0.20
2018-12-26T01:22:04.125Z,-0.10
2018-12-26T01:24:52.119Z,-0.20
2018-12-26T01:27:32.571Z,-0.30
2018-12-26T01:30:13.229Z,-0.60
2018-12-26T01:32:54.053Z,-0.80
2018-12-26T01:35:35.052Z,-1.00
2018-12-26T01:38:15.754Z,-1.10
2018-12-26T01:43:38.899Z,-1.20
2018-12-26T01:46:19.834Z,-1.30
2018-12-26T01:49:00.702Z,-1.40
2018-12-26T01:51:41.225Z,-1.40
2018-12-26T01:54:22.204Z,-1.50
2018-12-26T01:57:03.384Z,-1.40
2018-12-26T01:59:44.237Z,0.80
2018-12-26T02:05:09.235Z,-1.50
2018-12-26T02:07:49.714Z,-1.50
2018-12-26T02:10:30.284Z,-1.40
2018-12-26T02:13:13.420Z,-1.30
2018-12-26T02:15:54.061Z,-1.30
2018-12-26T02:18:35.370Z,-1.30
2018-12-26T02:21:16.604Z,-1.20
2018-12-26T02:26:36.337Z,-1.20
2018-12-26T02:29:13.044Z,-1.30
2018-12-26T02:31:54.279Z,-1.30
2018-12-26T02:34:35.496Z,-1.40
2018-12-26T02:37:16.489Z,-1.40
2018-12-26T02:39:57.245Z,-1.40
2018-12-26T02:42:38.316Z,-1.30
2018-12-26T02:45:19.045Z,-1.40
2018-12-26T02:48:00.412Z,-1.40
2018-12-26T02:50:40.837Z,-1.40
2018-12-26T02:53:21.774Z,-1.30
2018-12-26T02:56:02.353Z,-1.40
2018-12-26T02:58:43.168Z,-1.30
2018-12-26T03:01:23.866Z,-1.30
2018-12-26T03:04:04.746Z,-1.30
2018-12-26T03:06:45.803Z,-1.30
2018-12-26T03:09:26.626Z,-1.30
2018-12-26T03:12:07.918Z,-1.30
2018-12-26T03:14:37.210Z,-1.20
2018-12-26T03:17:25.396Z,-1.30
2018-12-26T03:20:16.014Z,-1.30
2018-12-26T03:23:04.118Z,-1.30
2018-12-26T03:28:52.891Z,-1.30
2018-12-26T03:34:17.086Z,-1.10
2018-12-26T03:37:05.434Z,-1.20
2018-12-26T03:39:53.601Z,-1.10
2018-12-26T03:42:41.865Z,-1.10
2018-12-26T03:45:30.249Z,-1.00
2018-12-26T03:51:25.808Z,-0.90
2018-12-26T03:54:13.921Z,-1.00
2018-12-26T03:57:06.233Z,-1.00
2018-12-26T04:02:44.790Z,-1.00
2018-12-26T04:05:32.920Z,-1.00
2018-12-26T04:08:21.033Z,-1.00
2018-12-26T04:11:09.161Z,-1.00
2018-12-26T04:13:57.304Z,-1.00
2018-12-26T04:16:45.372Z,-1.00
2018-12-26T04:19:33.601Z,-1.00
2018-12-26T04:22:21.700Z,-1.00
2018-12-26T04:25:09.817Z,-1.00
2018-12-26T04:27:57.932Z,-1.00
2018-12-26T04:30:39.231Z,-0.90
2018-12-26T04:33:20.028Z,-0.90
2018-12-26T04:36:00.412Z,-0.90
2018-12-26T04:38:41.188Z,-0.90
2018-12-26T04:41:22.128Z,-0.90
2018-12-26T04:44:02.694Z,-0.90
2018-12-26T04:46:43.365Z,-0.80
2018-12-26T04:49:24.006Z,-0.80
2018-12-26T04:52:04.397Z,-0.80
2018-12-26T04:54:45.059Z,-0.80
2018-12-26T04:57:25.630Z,-0.90
2018-12-26T05:00:06.760Z,-0.90
2018-12-26T05:02:47.993Z,-1.00
2018-12-26T05:05:28.963Z,-0.90
2018-12-26T05:08:10.410Z,-1.00
2018-12-26T05:10:51.557Z,-0.80
2018-12-26T05:13:32.302Z,-0.90
2018-12-26T05:16:13.101Z,-0.90
2018-12-26T05:18:53.725Z,-0.80
2018-12-26T05:21:34.369Z,-0.70
2018-12-26T05:24:15.117Z,-0.80
2018-12-26T05:26:55.910Z,-0.90
2018-12-26T05:29:36.575Z,-0.80
2018-12-26T05:32:17.078Z,-0.90
2018-12-26T05:34:58.050Z,-0.90
2018-12-26T05:37:38.896Z,-0.90
2018-12-26T05:40:19.994Z,-1.00
2018-12-26T05:43:00.916Z,-1.00
2018-12-26T05:45:42.113Z,-1.00
2018-12-26T05:48:22.424Z,-0.90
2018-12-26T05:51:03.236Z,-0.80
2018-12-26T05:53:43.813Z,-0.80
2018-12-26T05:56:24.852Z,-0.70
2018-12-26T05:59:06.092Z,-0.70
2018-12-26T06:01:47.078Z,-0.70
2018-12-26T06:04:27.784Z,-0.70
2018-12-26T06:07:08.345Z,-0.70
2018-12-26T06:09:49.502Z,-0.80
2018-12-26T06:12:30.540Z,2.40
2018-12-26T06:15:11.887Z,-0.70
2018-12-26T06:17:52.848Z,-0.70
2018-12-26T06:20:33.508Z,-0.60
2018-12-26T06:23:14.561Z,-0.60
2018-12-26T06:25:54.959Z,-0.50
2018-12-26T06:28:35.798Z,-0.60
2018-12-26T06:31:16.909Z,-0.50
2018-12-26T06:33:57.249Z,-0.50
2018-12-26T06:36:45.433Z,-0.50
2018-12-26T06:39:33.706Z,-0.60
2018-12-26T06:42:21.850Z,-0.60
2018-12-26T06:45:10.117Z,-0.60
2018-12-26T06:47:58.316Z,-0.60
2018-12-26T06:50:46.598Z,-0.60
2018-12-26T06:53:34.952Z,-0.60
2018-12-26T06:56:24.815Z,-0.60
2018-12-26T06:59:13.362Z,-0.70
2018-12-26T07:02:01.631Z,-0.70
2018-12-26T07:04:52.166Z,-0.70
2018-12-26T07:07:40.313Z,-0.60
2018-12-26T07:10:28.666Z,-0.70
2018-12-26T07:13:16.729Z,-0.70
2018-12-26T07:16:08.181Z,-0.70
2018-12-26T07:24:32.278Z,-0.50
2018-12-26T07:27:20.782Z,-0.60
2018-12-26T07:32:49.573Z,-0.60
2018-12-26T07:41:43.458Z,-0.40
2018-12-26T07:44:24.305Z,-0.50
2018-12-26T07:47:04.681Z,-0.60
2018-12-26T07:49:45.625Z,-0.70
2018-12-26T07:52:26.332Z,-0.60
2018-12-26T07:55:06.885Z,-0.50
2018-12-26T07:57:47.361Z,-0.60
2018-12-26T08:00:28.292Z,-0.50
2018-12-26T08:03:09.440Z,-0.50
2018-12-26T08:05:50.042Z,-0.40
2018-12-26T08:08:30.686Z,-0.50
2018-12-26T08:11:11.054Z,-0.50
2018-12-26T08:13:52.054Z,-0.40
2018-12-26T08:16:32.509Z,-0.40
2018-12-26T08:19:13.383Z,-0.40
2018-12-26T08:21:53.915Z,-0.50
2018-12-26T08:24:35.133Z,-0.50
2018-12-26T08:27:15.976Z,-0.60
2018-12-26T08:29:57.097Z,-0.60
2018-12-26T08:32:41.293Z,-0.60
2018-12-26T08:35:22.003Z,-0.60
2018-12-26T08:41:01.479Z,-0.60
2018-12-26T08:43:41.942Z,-0.60
2018-12-26T08:46:22.301Z,-0.60
2018-12-26T08:49:03.218Z,-0.60
2018-12-26T08:51:43.549Z,-0.60
2018-12-26T08:54:24.192Z,-0.60
2018-12-26T08:57:04.793Z,-0.60
2018-12-26T08:59:46.013Z,-0.60
2018-12-26T09:02:27.286Z,-0.60
2018-12-26T09:05:08.408Z,-0.60
2018-12-26T09:10:50.477Z,-0.60
2018-12-26T09:13:38.497Z,-0.70
2018-12-26T09:19:01.489Z,-0.70
2018-12-26T09:21:49.486Z,-0.70
2018-12-26T09:24:37.562Z,-0.60
2018-12-26T09:27:25.711Z,-2.30
2018-12-26T09:30:06.797Z,-0.60
2018-12-26T09:32:47.433Z,-0.60
2018-12-26T09:35:27.722Z,-0.60
2018-12-26T09:38:08.554Z,-0.60
2018-12-26T09:40:49.349Z,-0.60
2018-12-26T09:43:29.816Z,-0.50
2018-12-26T09:46:10.878Z,-0.60
2018-12-26T09:48:51.241Z,-0.50
2018-12-26T09:51:32.314Z,-0.50
2018-12-26T09:56:56.920Z,-0.50
2018-12-26T10:02:24.148Z,-0.70
2018-12-26T10:05:04.689Z,-0.60
2018-12-26T10:07:45.366Z,-0.70
2018-12-26T10:10:26.058Z,-0.60
2018-12-26T10:13:07.057Z,-0.60
2018-12-26T10:18:37.565Z,-0.50
2018-12-26T10:21:18.039Z,-0.50
2018-12-26T10:23:58.646Z,-0.40
2018-12-26T10:26:39.183Z,-0.40
2018-12-26T10:29:20.068Z,-0.30
2018-12-26T10:32:00.873Z,-0.30
2018-12-26T10:34:41.833Z,-1.60
2018-12-26T10:40:35.840Z,-0.30
2018-12-26T10:43:16.639Z,-0.30
2018-12-26T10:45:57.520Z,-0.40
2018-12-26T10:48:38.229Z,-0.30
2018-12-26T10:51:18.876Z,-0.30
2018-12-26T10:53:59.393Z,-0.10
2018-12-26T10:56:40.398Z,-0.20
2018-12-26T10:59:21.238Z,-0.20
2018-12-26T11:02:01.996Z,-0.20
2018-12-26T11:04:42.661Z,-0.20
2018-12-26T11:07:23.505Z,-0.10
2018-12-26T11:10:04.421Z,-0.20
2018-12-26T11:12:45.365Z,-0.20
2018-12-26T11:15:26.465Z,-0.20
2018-12-26T11:18:07.359Z,-0.30
2018-12-26T11:20:48.461Z,-0.20
2018-12-26T11:23:29.238Z,-0.20
2018-12-26T11:26:10.185Z,-0.20
2018-12-26T11:28:51.104Z,-0.20
2018-12-26T11:31:31.888Z,-0.20
2018-12-26T11:34:00.765Z,-0.10
2018-12-26T11:36:29.811Z,-0.20
2018-12-26T11:39:17.911Z,-0.10
2018-12-26T11:42:06.001Z,-0.10
2018-12-26T11:44:54.029Z,-0.10
2018-12-26T11:47:42.116Z,-0.10
2018-12-26T11:50:30.293Z,0.00
2018-12-26T11:53:18.337Z,0.00
2018-12-26T11:56:06.459Z,0.00
2018-12-26T11:58:54.492Z,0.00
2018-12-26T12:01:42.647Z,0.00
2018-12-26T12:04:30.844Z,0.00
2018-12-26T12:07:18.953Z,0.00
2018-12-26T12:10:07.082Z,0.00
2018-12-26T12:12:55.214Z,0.00
2018-12-26T12:15:43.325Z,0.00
2018-12-26T12:18:31.509Z,0.10
2018-12-26T12:24:26.829Z,0.00
2018-12-26T12:27:14.933Z,0.10
2018-12-26T12:30:03.079Z,0.10
2018-12-26T12:32:44.089Z,0.20
2018-12-26T12:35:24.981Z,0.20
2018-12-26T12:38:06.196Z,0.10
2018-12-26T12:40:47.209Z,0.10
2018-12-26T12:43:27.748Z,0.20
2018-12-26T12:46:08.461Z,0.10
2018-12-26T12:48:49.013Z,0.20
2018-12-26T12:51:29.806Z,0.10
2018-12-26T12:54:10.593Z,0.20
2018-12-26T13:00:04.666Z,0.30
2018-12-26T13:02:45.398Z,0.30
2018-12-26T13:05:26.497Z,0.30
2018-12-26T13:08:07.245Z,0.30
2018-12-26T13:10:47.817Z,0.40
2018-12-26T13:13:28.612Z,0.40
2018-12-26T13:16:09.784Z,0.30
2018-12-26T13:18:50.232Z,0.30
2018-12-26T13:21:31.048Z,0.40
2018-12-26T13:24:11.640Z,0.60
2018-12-26T13:26:52.452Z,0.60
2018-12-26T13:29:33.649Z,0.70
2018-12-26T13:32:14.305Z,0.70
2018-12-26T13:34:55.122Z,0.70
2018-12-26T13:37:35.912Z,0.80
2018-12-26T13:40:16.633Z,0.70
2018-12-26T13:42:57.364Z,0.80
2018-12-26T13:45:38.229Z,0.80
2018-12-26T13:48:18.904Z,0.70
2018-12-26T13:50:59.722Z,0.60
2018-12-26T13:53:40.518Z,0.60
2018-12-26T13:56:21.305Z,0.50
2018-12-26T13:59:01.790Z,0.50
2018-12-26T14:01:42.445Z,0.60
2018-12-26T14:04:23.208Z,0.70
2018-12-26T14:07:04.145Z,0.60
2018-12-26T14:09:44.705Z,0.50
2018-12-26T14:12:25.539Z,0.50
2018-12-26T14:21:18.477Z,1.30
2018-12-26T14:23:59.205Z,0.60
2018-12-26T14:26:40.412Z,0.70
2018-12-26T14:29:21.082Z,0.70
2018-12-26T14:32:01.789Z,0.60
2018-12-26T14:34:42.162Z,0.60
2018-12-26T14:43:20.146Z,0.80
2018-12-26T14:46:00.764Z,0.60
2018-12-26T14:54:53.419Z,0.80
2018-12-26T14:57:33.892Z,0.80
2018-12-26T15:00:19.873Z,0.70
2018-12-26T15:02:56.744Z,0.70
2018-12-26T15:05:37.249Z,0.70
2018-12-26T15:08:18.189Z,0.70
2018-12-26T15:10:58.999Z,0.70
2018-12-26T15:13:39.934Z,0.70
2018-12-26T15:16:20.801Z,0.70
2018-12-26T15:19:01.311Z,0.70
2018-12-26T15:21:42.637Z,0.70
2018-12-26T15:24:23.946Z,0.70
2018-12-26T15:27:04.535Z,0.70
2018-12-26T15:29:45.080Z,0.70
2018-12-26T15:32:25.964Z,0.70
2018-12-26T15:35:06.641Z,0.60
2018-12-26T15:37:47.337Z,0.60
2018-12-26T15:40:28.396Z,0.60
2018-12-26T15:43:09.118Z,0.50
2018-12-26T15:45:49.629Z,0.60
2018-12-26T15:48:30.306Z,0.60
2018-12-26T15:51:11.133Z,0.50
2018-12-26T15:53:51.700Z,0.50
2018-12-26T15:56:32.440Z,0.50
2018-12-26T15:59:13.300Z,0.40
2018-12-26T16:01:54.417Z,0.50
2018-12-26T16:04:35.177Z,0.50
2018-12-26T16:07:16.059Z,0.30
2018-12-26T16:09:56.403Z,0.40
2018-12-26T16:15:38.145Z,0.40
2018-12-26T16:18:18.540Z,0.40
2018-12-26T16:20:59.146Z,0.30
2018-12-26T16:23:40.465Z,0.40
2018-12-26T16:26:21.109Z,0.30
2018-12-26T16:29:01.872Z,0.40
2018-12-26T16:31:42.957Z,0.40
2018-12-26T16:34:23.623Z,0.40
2018-12-26T16:37:04.389Z,0.40
2018-12-26T16:39:45.133Z,0.30
2018-12-26T16:42:26.019Z,0.30
2018-12-26T16:45:06.817Z,0.40
2018-12-26T16:47:47.327Z,0.40
2018-12-26T16:50:28.002Z,0.40
2018-12-26T16:53:08.645Z,0.40
2018-12-26T16:55:49.417Z,0.40
2018-12-26T16:58:30.444Z,0.40
2018-12-26T17:01:10.837Z,0.40
2018-12-26T17:03:51.735Z,0.50
2018-12-26T17:06:32.612Z,0.50
2018-12-26T17:09:13.848Z,0.40
2018-12-26T17:11:54.246Z,0.50
2018-12-26T17:14:34.961Z,0.50
2018-12-26T17:17:15.518Z,0.40
2018-12-26T17:19:55.957Z,0.40
2018-12-26T17:22:36.370Z,0.50
2018-12-26T17:25:17.131Z,0.40
2018-12-26T17:27:57.770Z,0.30
2018-12-26T17:30:38.270Z,0.40
2018-12-26T17:33:19.283Z,0.40
2018-12-26T17:36:00.041Z,0.40
2018-12-26T17:38:41.002Z,0.40
2018-12-26T17:41:21.822Z,0.40
2018-12-26T17:44:02.426Z,0.30
2018-12-26T17:46:43.114Z,0.20
2018-12-26T17:49:24.120Z,0.20
2018-12-26T17:52:04.713Z,0.20
2018-12-26T17:54:45.906Z,0.20
2018-12-26T17:57:26.844Z,0.20
2018-12-26T18:00:07.751Z,0.10
2018-12-26T18:02:48.440Z,0.00
2018-12-26T18:05:29.246Z,0.10
2018-12-26T18:08:10.188Z,0.10
2018-12-26T18:10:51.193Z,0.10
2018-12-26T18:13:32.064Z,0.10
2018-12-26T18:16:12.654Z,0.10
2018-12-26T18:18:53.861Z,0.00
2018-12-26T18:21:34.304Z,0.20
2018-12-26T18:24:15.181Z,0.20
2018-12-26T18:26:56.597Z,0.10
2018-12-26T18:29:37.257Z,0.00
2018-12-26T18:32:17.970Z,0.00
2018-12-26T18:34:58.465Z,-0.10
2018-12-26T18:37:39.183Z,-0.10
2018-12-26T18:40:19.689Z,-0.10
2018-12-26T18:43:00.465Z,-0.10
2018-12-26T18:51:38.153Z,0.10
2018-12-26T18:54:26.166Z,-0.10
2018-12-26T18:57:14.201Z,-0.10
2018-12-26T18:59:43.096Z,-0.10
2018-12-26T19:02:31.112Z,-0.10
2018-12-26T19:05:19.285Z,-0.10
2018-12-26T19:08:07.294Z,-0.10
2018-12-26T19:13:43.017Z,-0.10
2018-12-26T19:16:31.048Z,-0.10
2018-12-26T19:22:26.302Z,0.00
2018-12-26T19:25:14.309Z,0.10
2018-12-26T19:28:02.429Z,0.10
2018-12-26T19:30:50.540Z,0.00
2018-12-26T19:33:31.573Z,0.00
2018-12-26T19:36:12.527Z,0.10
2018-12-26T19:38:53.464Z,0.10
2018-12-26T19:41:34.266Z,0.10
2018-12-26T19:44:15.452Z,0.10
2018-12-26T19:46:57.021Z,0.20
2018-12-26T19:49:37.725Z,0.10
2018-12-26T19:52:18.641Z,0.10
2018-12-26T19:54:59.553Z,0.10
2018-12-26T19:57:40.344Z,0.10
2018-12-26T20:00:21.281Z,0.10
2018-12-26T20:03:02.009Z,0.20
2018-12-26T20:11:54.193Z,0.70
2018-12-26T20:14:34.933Z,0.60
2018-12-26T20:17:15.640Z,0.50
2018-12-26T20:19:56.469Z,0.60
2018-12-26T20:22:37.069Z,0.60
2018-12-26T20:25:17.861Z,0.60
2018-12-26T20:27:58.741Z,0.60
2018-12-26T20:30:39.356Z,0.60
2018-12-26T20:39:30.828Z,0.50
2018-12-26T20:42:11.249Z,0.40
2018-12-26T20:44:52.057Z,0.40
2018-12-26T20:47:32.601Z,0.30
2018-12-26T20:50:13.125Z,0.20
2018-12-26T20:52:53.977Z,0.20
2018-12-26T20:55:34.708Z,0.10
2018-12-26T20:58:15.616Z,0.00
2018-12-26T21:00:56.580Z,0.20
2018-12-26T21:03:37.437Z,0.30
2018-12-26T21:06:18.297Z,0.10
2018-12-26T21:08:58.897Z,0.20
2018-12-26T21:11:39.464Z,0.10
2018-12-26T21:14:20.005Z,0.10
2018-12-26T21:17:00.496Z,0.20
2018-12-26T21:19:41.260Z,0.20
2018-12-26T21:22:21.684Z,0.20
2018-12-26T21:25:02.301Z,0.20
2018-12-26T21:27:42.989Z,0.20
2018-12-26T21:30:24.100Z,0.20
2018-12-26T21:33:04.683Z,0.30
2018-12-26T21:35:45.052Z,0.30
2018-12-26T21:38:25.642Z,0.30
2018-12-26T21:41:06.426Z,0.30
2018-12-26T21:49:58.639Z,0.60
2018-12-26T21:52:39.434Z,0.50
2018-12-26T21:55:20.219Z,0.40
2018-12-26T21:58:01.493Z,0.30
2018-12-26T22:00:42.633Z,0.30
2018-12-26T22:03:23.619Z,0.30
2018-12-26T22:06:04.376Z,0.30
2018-12-26T22:08:45.412Z,0.30
2018-12-26T22:11:26.601Z,0.30
2018-12-26T22:14:07.746Z,0.30
2018-12-26T22:16:48.141Z,0.30
2018-12-26T22:19:28.985Z,0.30
2018-12-26T22:22:09.509Z,0.30
2018-12-26T22:24:50.237Z,0.30
2018-12-26T22:27:31.180Z,0.30
2018-12-26T22:30:11.869Z,0.30
2018-12-26T22:35:51.569Z,0.30
2018-12-26T22:38:31.912Z,0.30
2018-12-26T22:41:12.648Z,0.20
2018-12-26T22:43:53.218Z,0.20
2018-12-26T22:46:34.045Z,0.20
2018-12-26T22:49:14.621Z,0.20
2018-12-26T22:51:55.265Z,0.30
2018-12-26T22:54:35.908Z,0.20
2018-12-26T22:57:16.549Z,0.20
2018-12-26T22:59:57.486Z,0.10
2018-12-26T23:02:39.266Z,0.10
2018-12-26T23:05:20.841Z,0.10
2018-12-26T23:08:01.710Z,0.00
2018-12-26T23:10:42.559Z,0.00
2018-12-26T23:13:23.185Z,0.00
2018-12-26T23:16:04.164Z,0.00
2018-12-26T23:18:45.222Z,0.00
2018-12-26T23:21:25.893Z,0.00
2018-12-26T23:23:54.869Z,-2.10
2018-12-26T23:26:23.672Z,-0.10
2018-12-26T23:28:52.560Z,-0.10
2018-12-26T23:31:21.471Z,0.00
2018-12-26T23:33:50.276Z,0.00
2018-12-26T23:36:19.228Z,0.10
2018-12-26T23:38:47.991Z,0.20
2018-12-26T23:41:16.903Z,0.20
2018-12-26T23:43:45.772Z,0.20
2018-12-26T23:46:14.853Z,0.20
2018-12-26T23:48:43.624Z,0.20
2018-12-26T23:51:12.428Z,0.20
2018-12-26T23:53:41.393Z,0.20
2018-12-26T23:56:10.386Z,0.20
2018-12-26T23:58:39.240Z,0.20
